createdAt,value
2016-10-06T00:00:34.135Z,10.32
2016-10-06T00:01:34.154Z,10.33
2016-10-06T00:02:34.180Z,10.4
2016-10-06T00:03:34.201Z,10.3
2016-10-06T00:04:34.218Z,10.29
2016-10-06T00:05:34.245Z,10.38
2016-10-06T00:06:34.262Z,10.41
2016-10-06T00:07:34.279Z,10.3
2016-10-06T00:08:34.304Z,10.33
2016-10-06T00:09:34.330Z,10.4
2016-10-06T00:10:49.264Z,10.36
2016-10-06T00:11:34.365Z,10.38
2016-10-06T00:12:34.393Z,10.41
2016-10-06T00:13:34.414Z,10.38
2016-10-06T00:14:34.433Z,10.38
2016-10-06T00:15:34.703Z,10.38
2016-10-06T00:16:34.472Z,10.36
2016-10-06T00:17:34.495Z,10.33
2016-10-06T00:18:34.522Z,10.27
2016-10-06T00:19:34.540Z,10.38
2016-10-06T00:20:34.566Z,10.4
2016-10-06T00:21:34.582Z,10.32
2016-10-06T00:22:49.523Z,10.27
2016-10-06T00:23:34.630Z,10.32
2016-10-06T00:24:34.646Z,10.33
2016-10-06T00:25:49.589Z,10.26
2016-10-06T00:26:34.687Z,10.32
2016-10-06T00:27:34.711Z,10.27
2016-10-06T00:28:34.744Z,10.3
2016-10-06T00:29:34.747Z,10.36
2016-10-06T00:30:34.786Z,10.38
2016-10-06T00:31:34.791Z,10.36
2016-10-06T00:32:34.824Z,10.32
2016-10-06T00:33:35.087Z,10.32
2016-10-06T00:34:34.854Z,10.36
2016-10-06T00:35:34.877Z,10.27
2016-10-06T00:36:34.898Z,10.26
2016-10-06T00:37:34.920Z,10.27
2016-10-06T00:38:34.943Z,10.32
2016-10-06T00:39:49.885Z,10.32
2016-10-06T00:40:49.905Z,10.4
2016-10-06T00:41:49.924Z,10.33
2016-10-06T00:42:35.024Z,10.4
2016-10-06T00:43:35.049Z,10.4
2016-10-06T00:44:35.064Z,10.38
2016-10-06T00:45:35.094Z,10.4
2016-10-06T00:46:35.105Z,10.4
2016-10-06T00:47:35.133Z,10.34
2016-10-06T00:48:35.405Z,10.48
2016-10-06T00:49:35.174Z,10.48
2016-10-06T00:50:35.203Z,10.4
2016-10-06T00:51:35.219Z,10.48
2016-10-06T00:52:35.234Z,10.47
2016-10-06T00:54:35.279Z,10.48
2016-10-06T00:55:35.297Z,10.51
2016-10-06T00:56:50.245Z,10.51
2016-10-06T00:57:50.278Z,10.47
2016-10-06T00:58:35.363Z,10.51
2016-10-06T00:59:35.388Z,10.51
2016-10-06T01:00:35.407Z,10.56
2016-10-06T01:01:35.478Z,10.53
2016-10-06T01:02:35.453Z,10.51
2016-10-06T01:03:35.474Z,10.47
2016-10-06T01:04:35.496Z,10.53
2016-10-06T01:05:35.521Z,10.44
2016-10-06T01:06:35.532Z,10.48
2016-10-06T01:07:35.559Z,10.51
2016-10-06T01:08:35.577Z,10.47
2016-10-06T01:09:50.522Z,10.51
2016-10-06T01:10:35.626Z,10.45
2016-10-06T01:11:50.564Z,10.52
2016-10-06T01:12:35.660Z,10.47
2016-10-06T01:13:50.608Z,10.47
2016-10-06T01:14:35.705Z,10.45
2016-10-06T01:15:35.730Z,10.51
2016-10-06T01:16:35.750Z,10.47
2016-10-06T01:17:35.767Z,10.55
2016-10-06T01:18:35.798Z,10.52
2016-10-06T01:19:35.812Z,10.47
2016-10-06T01:20:35.843Z,10.51
2016-10-06T01:21:35.907Z,10.56
2016-10-06T01:22:35.875Z,10.59
2016-10-06T01:23:50.873Z,10.6
2016-10-06T01:24:35.915Z,10.61
2016-10-06T01:25:35.998Z,10.59
2016-10-06T01:26:50.888Z,10.67
2016-10-06T01:27:35.986Z,10.66
2016-10-06T01:28:50.928Z,10.66
2016-10-06T01:29:36.031Z,10.64
2016-10-06T01:30:36.102Z,10.66
2016-10-06T01:31:36.069Z,10.59
2016-10-06T01:32:36.145Z,10.61
2016-10-06T01:33:36.117Z,10.66
2016-10-06T01:34:36.137Z,10.61
2016-10-06T01:35:36.156Z,10.6
2016-10-06T01:36:36.175Z,10.6
2016-10-06T01:37:36.196Z,10.67
2016-10-06T01:38:36.220Z,10.67
2016-10-06T01:42:36.311Z,10.71
2016-10-06T01:43:36.626Z,10.64
2016-10-06T01:44:51.267Z,10.67
2016-10-06T01:45:36.370Z,10.63
2016-10-06T01:46:36.394Z,10.71
2016-10-06T01:47:36.413Z,10.67
2016-10-06T01:48:36.432Z,10.63
2016-10-06T01:49:36.451Z,10.61
2016-10-06T01:50:36.478Z,10.61
2016-10-06T01:51:36.498Z,10.73
2016-10-06T01:52:36.519Z,10.68
2016-10-06T01:53:36.546Z,10.67
2016-10-06T01:54:36.560Z,10.67
2016-10-06T01:55:36.579Z,10.7
2016-10-06T01:56:36.604Z,10.71
2016-10-06T01:57:51.549Z,10.7
2016-10-06T01:58:36.644Z,10.7
2016-10-06T01:59:36.716Z,10.67
2016-10-06T02:00:51.612Z,10.67
2016-10-06T02:01:36.715Z,10.67
2016-10-06T02:02:36.737Z,10.7
2016-10-06T02:03:36.755Z,10.81
2016-10-06T02:04:36.778Z,10.71
2016-10-06T02:05:36.799Z,10.78
2016-10-06T02:06:36.816Z,10.68
2016-10-06T02:07:36.838Z,10.74
2016-10-06T02:08:36.910Z,10.7
2016-10-06T02:09:36.928Z,10.68
2016-10-06T02:10:37.207Z,10.68
2016-10-06T02:11:36.928Z,10.64
2016-10-06T02:12:36.948Z,10.68
2016-10-06T02:13:36.969Z,10.7
2016-10-06T02:14:37.041Z,10.68
2016-10-06T02:15:37.012Z,10.71
2016-10-06T02:16:51.955Z,10.78
2016-10-06T02:17:37.062Z,10.71
2016-10-06T02:18:37.074Z,10.73
2016-10-06T02:19:37.097Z,10.71
2016-10-06T02:20:37.119Z,10.78
2016-10-06T02:21:37.142Z,10.81
2016-10-06T02:22:37.161Z,10.76
2016-10-06T02:23:37.186Z,10.88
2016-10-06T02:24:37.204Z,10.91
2016-10-06T02:25:37.224Z,10.86
2016-10-06T02:26:37.246Z,10.86
2016-10-06T02:27:37.265Z,10.86
2016-10-06T02:28:52.213Z,10.85
2016-10-06T02:29:37.310Z,10.88
2016-10-06T02:30:37.325Z,10.85
2016-10-06T02:31:37.354Z,10.91
2016-10-06T02:32:52.295Z,10.97
2016-10-06T02:33:37.388Z,10.96
2016-10-06T02:34:37.420Z,10.84
2016-10-06T02:35:37.440Z,10.91
2016-10-06T02:36:37.464Z,10.97
2016-10-06T02:37:37.740Z,11
2016-10-06T02:38:37.504Z,10.96
2016-10-06T02:40:37.794Z,10.91
2016-10-06T02:41:37.568Z,11
2016-10-06T02:42:37.597Z,11.03
2016-10-06T02:43:37.616Z,11.06
2016-10-06T02:44:37.635Z,10.96
2016-10-06T02:45:37.705Z,11.06
2016-10-06T02:46:37.669Z,11.03
2016-10-06T02:47:37.700Z,11.06
2016-10-06T02:48:52.645Z,11.04
2016-10-06T02:49:37.990Z,11.04
2016-10-06T02:50:37.764Z,11
2016-10-06T02:51:37.785Z,11
2016-10-06T02:52:37.810Z,11.02
2016-10-06T02:53:37.879Z,11.1
2016-10-06T02:54:37.847Z,11.14
2016-10-06T02:55:37.867Z,11.03
2016-10-06T02:56:37.889Z,11.1
2016-10-06T02:58:37.935Z,11.07
2016-10-06T03:00:37.976Z,11.1
2016-10-06T03:01:52.923Z,11.17
2016-10-06T03:02:38.035Z,11.11
2016-10-06T03:03:52.963Z,11.1
2016-10-06T03:05:38.084Z,11.11
2016-10-06T03:06:38.108Z,11.17
2016-10-06T03:07:38.129Z,11.22
2016-10-06T03:08:38.148Z,11.21
2016-10-06T03:09:38.175Z,11.09
2016-10-06T03:10:38.194Z,11.18
2016-10-06T03:11:38.211Z,11.1
2016-10-06T03:12:38.239Z,11.15
2016-10-06T03:13:38.259Z,11.1
2016-10-06T03:14:38.281Z,11.14
2016-10-06T03:15:38.301Z,11.19
2016-10-06T03:16:38.328Z,11.15
2016-10-06T03:18:38.362Z,11.21
2016-10-06T03:19:38.388Z,11.21
2016-10-06T03:20:53.327Z,11.29
2016-10-06T03:21:38.433Z,11.22
2016-10-06T03:22:38.455Z,11.22
2016-10-06T03:23:38.470Z,11.22
2016-10-06T03:24:38.798Z,11.21
2016-10-06T03:25:38.525Z,11.24
2016-10-06T03:26:38.541Z,11.24
2016-10-06T03:27:38.556Z,11.24
2016-10-06T03:28:38.581Z,11.24
2016-10-06T03:29:38.597Z,11.28
2016-10-06T03:30:39.023Z,11.21
2016-10-06T03:31:53.586Z,11.27
2016-10-06T03:32:38.669Z,11.32
2016-10-06T03:33:38.701Z,11.28
2016-10-06T03:34:38.712Z,11.4
2016-10-06T03:35:53.653Z,11.33
2016-10-06T03:36:38.759Z,11.32
2016-10-06T03:37:38.772Z,11.27
2016-10-06T03:38:38.796Z,11.39
2016-10-06T03:39:38.815Z,11.29
2016-10-06T03:40:38.841Z,11.22
2016-10-06T03:41:38.866Z,11.4
2016-10-06T03:42:38.883Z,11.39
2016-10-06T03:43:39.203Z,11.36
2016-10-06T03:44:38.929Z,11.37
2016-10-06T03:45:38.951Z,11.35
2016-10-06T03:46:38.964Z,11.33
2016-10-06T03:47:38.994Z,11.28
2016-10-06T03:49:53.956Z,11.19
2016-10-06T03:50:53.976Z,11.32
2016-10-06T03:51:54.003Z,11.35
2016-10-06T03:52:39.104Z,11.32
2016-10-06T03:53:39.122Z,11.35
2016-10-06T03:54:39.144Z,11.35
2016-10-06T03:55:39.165Z,11.32
2016-10-06T03:56:39.190Z,11.22
2016-10-06T03:57:39.208Z,11.27
2016-10-06T03:58:39.232Z,11.24
2016-10-06T03:59:39.252Z,11.39
2016-10-06T04:00:39.274Z,11.39
2016-10-06T04:01:39.292Z,11.33
2016-10-06T04:02:39.314Z,11.35
2016-10-06T04:03:39.340Z,11.35
2016-10-06T04:04:39.557Z,11.35
2016-10-06T04:05:39.380Z,11.27
2016-10-06T04:06:39.404Z,11.35
2016-10-06T04:07:54.342Z,11.37
2016-10-06T04:08:39.451Z,11.35
2016-10-06T04:09:39.470Z,11.39
2016-10-06T04:10:39.488Z,11.35
2016-10-06T04:11:39.513Z,11.39
2016-10-06T04:12:39.528Z,11.37
2016-10-06T04:13:39.552Z,11.35
2016-10-06T04:14:39.568Z,11.35
2016-10-06T04:15:39.595Z,11.33
2016-10-06T04:16:39.613Z,11.32
2016-10-06T04:17:39.835Z,11.28
2016-10-06T04:18:39.660Z,11.35
2016-10-06T04:19:39.684Z,11.29
2016-10-06T04:20:39.700Z,11.37
2016-10-06T04:21:39.729Z,11.33
2016-10-06T04:22:39.755Z,11.35
2016-10-06T04:23:54.688Z,11.29
2016-10-06T04:24:39.789Z,11.35
2016-10-06T04:25:39.809Z,11.33
2016-10-06T04:26:40.030Z,11.35
2016-10-06T04:27:39.851Z,11.25
2016-10-06T04:28:39.878Z,11.25
2016-10-06T04:29:39.898Z,11.29
2016-10-06T04:30:39.929Z,11.28
2016-10-06T04:31:39.939Z,11.39
2016-10-06T04:32:39.962Z,11.33
2016-10-06T04:33:39.984Z,11.28
2016-10-06T04:35:40.027Z,11.39
2016-10-06T04:36:40.047Z,11.32
2016-10-06T04:37:40.072Z,11.33
2016-10-06T04:38:55.020Z,11.32
2016-10-06T04:39:40.118Z,11.29
2016-10-06T04:40:40.139Z,11.37
2016-10-06T04:41:40.164Z,11.24
2016-10-06T04:42:40.181Z,11.28
2016-10-06T04:43:40.205Z,11.35
2016-10-06T04:44:40.225Z,11.28
2016-10-06T04:45:40.246Z,11.36
2016-10-06T04:46:40.317Z,11.27
2016-10-06T04:48:40.308Z,11.32
2016-10-06T04:49:55.257Z,11.37
2016-10-06T04:50:55.276Z,11.35
2016-10-06T04:51:40.377Z,11.29
2016-10-06T04:52:40.395Z,11.35
2016-10-06T04:53:40.425Z,11.32
2016-10-06T04:54:40.444Z,11.22
2016-10-06T04:55:40.464Z,11.27
2016-10-06T04:56:40.479Z,11.25
2016-10-06T04:57:40.507Z,11.37
2016-10-06T04:58:40.538Z,11.32
2016-10-06T04:59:40.545Z,11.25
2016-10-06T05:00:40.564Z,11.25
2016-10-06T05:01:40.640Z,11.28
2016-10-06T05:02:40.618Z,11.28
2016-10-06T05:03:40.635Z,11.35
2016-10-06T05:04:40.656Z,11.32
2016-10-06T05:05:40.688Z,11.25
2016-10-06T05:06:55.623Z,11.27
2016-10-06T05:07:55.644Z,11.29
2016-10-06T05:08:40.748Z,11.35
2016-10-06T05:09:41.012Z,11.28
2016-10-06T05:10:55.712Z,11.33
2016-10-06T05:11:40.808Z,11.44
2016-10-06T05:12:40.828Z,11.24
2016-10-06T05:13:40.853Z,11.29
2016-10-06T05:14:40.872Z,11.28
2016-10-06T05:15:40.903Z,11.33
2016-10-06T05:16:40.909Z,11.22
2016-10-06T05:17:40.943Z,11.28
2016-10-06T05:18:40.964Z,11.39
2016-10-06T05:19:40.979Z,11.33
2016-10-06T05:20:40.999Z,11.42
2016-10-06T05:21:41.026Z,11.37
2016-10-06T05:22:41.045Z,11.33
2016-10-06T05:23:41.062Z,11.27
2016-10-06T05:24:41.099Z,11.27
2016-10-06T05:26:56.056Z,11.25
2016-10-06T05:27:41.157Z,11.27
2016-10-06T05:28:41.180Z,11.28
2016-10-06T05:29:41.203Z,11.27
2016-10-06T05:30:41.233Z,11.29
2016-10-06T05:31:41.253Z,11.24
2016-10-06T05:32:41.256Z,11.27
2016-10-06T05:33:41.285Z,11.29
2016-10-06T05:34:41.306Z,11.32
2016-10-06T05:35:41.330Z,11.24
2016-10-06T05:36:41.448Z,11.28
2016-10-06T05:37:41.373Z,11.18
2016-10-06T05:38:56.316Z,11.37
2016-10-06T05:39:41.421Z,11.24
2016-10-06T05:40:41.438Z,11.32
2016-10-06T05:41:41.461Z,11.28
2016-10-06T05:42:56.401Z,11.24
2016-10-06T05:43:41.506Z,11.28
2016-10-06T05:44:41.521Z,11.29
2016-10-06T05:45:41.549Z,11.28
2016-10-06T05:46:41.570Z,11.4
2016-10-06T05:47:41.588Z,11.36
2016-10-06T05:48:41.606Z,11.32
2016-10-06T05:49:41.636Z,11.29
2016-10-06T05:50:41.654Z,11.19
2016-10-06T05:51:41.677Z,11.28
2016-10-06T05:52:41.693Z,11.27
2016-10-06T05:53:41.717Z,11.27
2016-10-06T05:54:41.735Z,11.36
2016-10-06T05:55:41.764Z,11.29
2016-10-06T05:56:41.783Z,11.36
2016-10-06T05:57:41.802Z,11.37
2016-10-06T05:58:56.750Z,11.33
2016-10-06T05:59:56.766Z,11.28
2016-10-06T06:00:41.885Z,11.33
2016-10-06T06:01:41.891Z,11.35
2016-10-06T06:02:41.912Z,11.24
2016-10-06T06:03:41.936Z,11.33
2016-10-06T06:04:41.960Z,11.36
2016-10-06T06:05:41.986Z,11.28
2016-10-06T06:06:41.997Z,11.28
2016-10-06T06:07:42.020Z,11.4
2016-10-06T06:08:42.038Z,11.39
2016-10-06T06:09:42.064Z,11.35
2016-10-06T06:10:42.085Z,11.33
2016-10-06T06:11:42.112Z,11.29
2016-10-06T06:12:42.131Z,11.35
2016-10-06T06:13:57.072Z,11.37
2016-10-06T06:14:42.172Z,11.4
2016-10-06T06:15:42.207Z,11.42
2016-10-06T06:16:42.220Z,11.37
2016-10-06T06:17:42.250Z,11.42
2016-10-06T06:18:42.262Z,11.44
2016-10-06T06:19:42.283Z,11.37
2016-10-06T06:20:42.301Z,11.37
2016-10-06T06:21:42.325Z,11.37
2016-10-06T06:22:42.346Z,11.39
2016-10-06T06:23:42.370Z,11.43
2016-10-06T06:24:42.385Z,11.42
2016-10-06T06:25:42.457Z,11.44
2016-10-06T06:26:42.432Z,11.47
2016-10-06T06:27:42.463Z,11.51
2016-10-06T06:28:42.486Z,11.42
2016-10-06T06:29:42.501Z,11.46
2016-10-06T06:30:42.840Z,11.46
2016-10-06T06:31:42.539Z,11.4
2016-10-06T06:32:42.563Z,11.52
2016-10-06T06:33:42.587Z,11.44
2016-10-06T06:34:42.707Z,11.43
2016-10-06T06:36:42.654Z,11.54
2016-10-06T06:37:42.676Z,11.49
2016-10-06T06:39:42.721Z,11.49
2016-10-06T06:40:42.749Z,11.47
2016-10-06T06:42:42.779Z,11.55
2016-10-06T06:43:42.803Z,11.61
2016-10-06T06:44:42.830Z,11.49
2016-10-06T06:45:57.770Z,11.51
2016-10-06T06:46:42.875Z,11.54
2016-10-06T06:47:42.893Z,11.51
2016-10-06T06:48:42.915Z,11.42
2016-10-06T06:49:42.938Z,11.52
2016-10-06T06:50:42.950Z,11.42
2016-10-06T06:51:42.985Z,11.46
2016-10-06T06:52:42.995Z,11.46
2016-10-06T06:53:43.020Z,11.43
2016-10-06T06:54:43.050Z,11.43
2016-10-06T06:55:43.072Z,11.36
2016-10-06T06:56:43.090Z,11.42
2016-10-06T06:57:58.033Z,11.4
2016-10-06T06:58:43.130Z,11.39
2016-10-06T06:59:58.077Z,11.43
2016-10-06T07:00:43.174Z,11.44
2016-10-06T07:01:58.117Z,11.37
2016-10-06T07:02:43.224Z,11.35
2016-10-06T07:03:43.238Z,11.32
2016-10-06T07:04:43.261Z,11.36
2016-10-06T07:05:43.283Z,11.33
2016-10-06T07:06:43.302Z,11.37
2016-10-06T07:07:43.528Z,11.32
2016-10-06T07:08:43.350Z,11.35
2016-10-06T07:09:43.374Z,11.35
2016-10-06T07:10:43.393Z,11.46
2016-10-06T07:11:43.411Z,11.37
2016-10-06T07:12:43.441Z,11.43
2016-10-06T07:13:43.460Z,11.42
2016-10-06T07:14:43.472Z,11.46
2016-10-06T07:15:43.505Z,11.52
2016-10-06T07:16:43.526Z,11.54
2016-10-06T07:17:58.468Z,11.58
2016-10-06T07:18:43.572Z,11.49
2016-10-06T07:19:43.903Z,11.54
2016-10-06T07:20:43.915Z,11.58
2016-10-06T07:21:43.638Z,11.7
2016-10-06T07:22:43.657Z,11.61
2016-10-06T07:23:43.671Z,11.69
2016-10-06T07:24:43.900Z,11.69
2016-10-06T07:25:43.721Z,11.7
2016-10-06T07:26:43.740Z,11.67
2016-10-06T07:27:44.320Z,11.7
2016-10-06T07:28:43.782Z,11.69
2016-10-06T07:29:43.807Z,11.67
2016-10-06T07:30:58.753Z,11.6
2016-10-06T07:31:43.851Z,11.67
2016-10-06T07:32:43.867Z,11.67
2016-10-06T07:33:58.826Z,11.67
2016-10-06T07:34:43.917Z,11.62
2016-10-06T07:35:43.936Z,11.65
2016-10-06T07:36:43.964Z,11.67
2016-10-06T07:37:43.982Z,11.73
2016-10-06T07:38:44.007Z,11.79
2016-10-06T07:39:44.031Z,11.79
2016-10-06T07:40:44.046Z,11.8
2016-10-06T07:42:44.399Z,11.96
2016-10-06T07:43:44.111Z,11.98
2016-10-06T07:44:44.133Z,11.99
2016-10-06T07:45:44.464Z,11.96
2016-10-06T07:46:44.181Z,11.96
2016-10-06T07:47:44.206Z,12.01
2016-10-06T07:48:59.144Z,12.01
2016-10-06T07:49:44.249Z,12.16
2016-10-06T07:50:44.274Z,12.12
2016-10-06T07:51:44.290Z,12.2
2016-10-06T07:52:44.314Z,12.28
2016-10-06T07:53:44.334Z,12.24
2016-10-06T07:54:44.359Z,12.2
2016-10-06T07:55:44.378Z,12.13
2016-10-06T07:56:44.404Z,12.17
2016-10-06T07:57:44.419Z,12.19
2016-10-06T07:58:44.440Z,12.14
2016-10-06T07:59:44.468Z,12.27
2016-10-06T08:00:44.488Z,12.28
2016-10-06T08:01:59.435Z,12.27
2016-10-06T08:02:44.533Z,12.29
2016-10-06T08:03:59.477Z,12.27
2016-10-06T08:04:44.580Z,12.41
2016-10-06T08:05:44.607Z,12.41
2016-10-06T08:06:44.627Z,12.38
2016-10-06T08:07:44.649Z,12.27
2016-10-06T08:08:44.664Z,12.24
2016-10-06T08:10:44.739Z,12.28
2016-10-06T08:11:44.735Z,12.28
2016-10-06T08:12:44.760Z,12.32
2016-10-06T08:13:44.773Z,12.24
2016-10-06T08:14:44.801Z,12.31
2016-10-06T08:15:44.818Z,12.23
2016-10-06T08:16:44.839Z,12.35
2016-10-06T08:17:45.115Z,12.23
2016-10-06T08:18:44.887Z,12.21
2016-10-06T08:19:44.910Z,12.32
2016-10-06T08:20:59.851Z,12.34
2016-10-06T08:21:44.959Z,12.29
2016-10-06T08:22:44.974Z,12.31
2016-10-06T08:23:45.002Z,12.29
2016-10-06T08:24:45.022Z,12.24
2016-10-06T08:25:45.044Z,12.27
2016-10-06T08:26:45.064Z,12.24
2016-10-06T08:27:45.088Z,12.23
2016-10-06T08:28:45.108Z,12.23
2016-10-06T08:29:45.131Z,12.27
2016-10-06T08:30:45.152Z,12.27
2016-10-06T08:31:45.176Z,12.23
2016-10-06T08:33:00.124Z,12.24
2016-10-06T08:34:45.242Z,12.28
2016-10-06T08:35:45.266Z,12.23
2016-10-06T08:37:00.212Z,12.29
2016-10-06T08:37:45.312Z,12.24
2016-10-06T08:38:45.332Z,12.24
2016-10-06T08:39:45.355Z,12.19
2016-10-06T08:40:45.379Z,12.14
2016-10-06T08:41:45.399Z,12.17
2016-10-06T08:42:45.421Z,12.14
2016-10-06T08:43:45.442Z,12.23
2016-10-06T08:44:45.465Z,12.21
2016-10-06T08:45:45.491Z,12.2
2016-10-06T08:46:45.510Z,12.2
2016-10-06T08:47:45.536Z,12.19
2016-10-06T08:48:45.558Z,12.24
2016-10-06T08:50:00.502Z,12.37
2016-10-06T08:50:45.600Z,12.28
2016-10-06T08:51:45.626Z,12.34
2016-10-06T08:53:00.569Z,12.32
2016-10-06T08:53:45.670Z,12.32
2016-10-06T08:54:45.696Z,12.24
2016-10-06T08:55:45.704Z,12.14
2016-10-06T08:56:45.736Z,12.16
2016-10-06T08:57:45.756Z,12.17
2016-10-06T08:58:45.775Z,12.12
2016-10-06T08:59:45.796Z,12.1
2016-10-06T09:00:45.819Z,12.07
2016-10-06T09:01:45.851Z,12.14
2016-10-06T09:02:45.860Z,12.01
2016-10-06T09:04:45.917Z,12.04
2016-10-06T09:05:46.936Z,12.1
2016-10-06T09:06:45.953Z,11.95
2016-10-06T09:07:45.980Z,11.94
2016-10-06T09:09:00.924Z,11.96
2016-10-06T09:09:46.022Z,12.04
2016-10-06T09:10:46.047Z,11.91
2016-10-06T09:11:46.069Z,11.98
2016-10-06T09:12:46.087Z,12.05
2016-10-06T09:13:46.107Z,12.04
2016-10-06T09:14:46.133Z,11.99
2016-10-06T09:15:46.152Z,12.09
2016-10-06T09:16:46.181Z,11.9
2016-10-06T09:17:46.218Z,12.02
2016-10-06T09:18:46.221Z,12.05
2016-10-06T09:19:46.250Z,11.96
2016-10-06T09:20:46.262Z,11.95
2016-10-06T09:21:46.292Z,11.91
2016-10-06T09:24:01.274Z,11.9
2016-10-06T09:24:46.359Z,11.94
2016-10-06T09:25:46.383Z,11.98
2016-10-06T09:26:46.406Z,11.98
2016-10-06T09:27:46.422Z,12.05
2016-10-06T09:28:46.646Z,11.98
2016-10-06T09:29:46.471Z,11.99
2016-10-06T09:30:46.491Z,12.1
2016-10-06T09:31:46.512Z,12.14
2016-10-06T09:33:46.553Z,12.09
2016-10-06T09:35:01.502Z,12.14
2016-10-06T09:36:01.525Z,12.17
2016-10-06T09:36:46.624Z,12.14
2016-10-06T09:37:46.642Z,12.21
2016-10-06T09:38:46.664Z,12.27
2016-10-06T09:39:46.696Z,12.37
2016-10-06T09:40:46.707Z,12.39
2016-10-06T09:41:46.734Z,12.42
2016-10-06T09:42:46.768Z,12.47
2016-10-06T09:43:46.784Z,12.46
2016-10-06T09:44:46.810Z,12.46
2016-10-06T09:45:46.825Z,12.42
2016-10-06T09:46:46.848Z,12.49
2016-10-06T09:47:46.865Z,12.47
2016-10-06T09:48:46.896Z,12.42
2016-10-06T09:49:46.918Z,12.35
2016-10-06T09:50:46.932Z,12.46
2016-10-06T09:51:46.956Z,12.45
2016-10-06T09:52:46.978Z,12.38
2016-10-06T09:53:47.251Z,12.34
2016-10-06T09:54:47.021Z,12.46
2016-10-06T09:56:01.970Z,12.52
2016-10-06T09:56:47.069Z,12.57
2016-10-06T09:57:47.092Z,12.65
2016-10-06T09:58:47.119Z,12.79
2016-10-06T09:59:47.132Z,12.74
2016-10-06T10:00:47.156Z,12.68
2016-10-06T10:01:47.180Z,12.65
2016-10-06T10:02:47.203Z,12.54
2016-10-06T10:04:47.253Z,12.67
2016-10-06T10:05:47.271Z,12.53
2016-10-06T10:06:47.302Z,12.56
2016-10-06T10:07:47.319Z,12.54
2016-10-06T10:08:47.334Z,12.54
2016-10-06T10:10:47.386Z,12.49
2016-10-06T10:12:02.331Z,12.6
2016-10-06T10:12:47.430Z,12.6
2016-10-06T10:13:47.451Z,12.53
2016-10-06T10:14:47.476Z,12.54
2016-10-06T10:15:47.564Z,12.56
2016-10-06T10:16:47.518Z,12.54
2016-10-06T10:17:47.541Z,12.45
2016-10-06T10:18:47.563Z,12.56
2016-10-06T10:19:47.588Z,12.57
2016-10-06T10:20:47.613Z,12.57
2016-10-06T10:21:47.628Z,12.5
2016-10-06T10:22:47.660Z,12.45
2016-10-06T10:23:47.695Z,12.39
2016-10-06T10:24:47.698Z,12.38
2016-10-06T10:25:47.722Z,12.39
2016-10-06T10:26:47.743Z,12.49
2016-10-06T10:28:02.687Z,12.52
2016-10-06T10:28:48.037Z,12.54
2016-10-06T10:29:47.814Z,12.65
2016-10-06T10:30:47.830Z,12.68
2016-10-06T10:31:47.857Z,12.67
2016-10-06T10:32:47.880Z,12.75
2016-10-06T10:33:47.901Z,12.68
2016-10-06T10:34:47.915Z,12.68
2016-10-06T10:36:47.965Z,12.56
2016-10-06T10:37:47.993Z,12.65
2016-10-06T10:38:48.007Z,12.6
2016-10-06T10:39:48.029Z,12.65
2016-10-06T10:40:48.056Z,12.67
2016-10-06T10:42:02.998Z,12.53
2016-10-06T10:42:48.137Z,12.65
2016-10-06T10:44:03.044Z,12.47
2016-10-06T10:44:48.146Z,12.46
2016-10-06T10:45:48.167Z,12.39
2016-10-06T10:46:48.191Z,12.42
2016-10-06T10:47:48.208Z,12.42
2016-10-06T10:48:48.232Z,12.34
2016-10-06T10:49:48.262Z,12.34
2016-10-06T10:50:48.278Z,12.34
2016-10-06T10:51:48.351Z,12.23
2016-10-06T10:52:48.328Z,12.29
2016-10-06T10:53:48.344Z,12.21
2016-10-06T10:54:48.367Z,12.29
2016-10-06T10:55:48.388Z,12.24
2016-10-06T10:56:48.415Z,12.29
2016-10-06T10:57:48.442Z,12.31
2016-10-06T10:59:03.380Z,12.31
2016-10-06T10:59:48.484Z,12.28
2016-10-06T11:00:48.508Z,12.14
2016-10-06T11:01:48.529Z,12.13
2016-10-06T11:02:48.551Z,12.13
2016-10-06T11:03:48.577Z,11.99
2016-10-06T11:04:48.598Z,12.02
2016-10-06T11:05:48.617Z,12.01
2016-10-06T11:06:48.640Z,12.12
2016-10-06T11:07:48.913Z,12.04
2016-10-06T11:09:03.605Z,12.07
2016-10-06T11:09:48.703Z,12.13
2016-10-06T11:10:48.723Z,12.01
2016-10-06T11:12:48.776Z,11.94
2016-10-06T11:13:48.797Z,11.86
2016-10-06T11:14:48.812Z,11.95
2016-10-06T11:15:48.835Z,11.94
2016-10-06T11:16:48.857Z,11.88
2016-10-06T11:17:48.884Z,11.88
2016-10-06T11:18:48.902Z,11.78
2016-10-06T11:19:49.278Z,11.8
2016-10-06T11:20:48.948Z,11.73
2016-10-06T11:21:48.970Z,11.8
2016-10-06T11:22:48.993Z,11.76
2016-10-06T11:23:49.009Z,11.76
2016-10-06T11:24:49.039Z,11.72
2016-10-06T11:25:49.055Z,11.85
2016-10-06T11:26:49.079Z,11.82
2016-10-06T11:27:49.358Z,11.78
2016-10-06T11:28:49.132Z,11.85
2016-10-06T11:29:49.147Z,11.82
2016-10-06T11:31:04.086Z,11.8
2016-10-06T11:31:49.195Z,11.8
2016-10-06T11:32:49.218Z,11.73
2016-10-06T11:33:49.234Z,11.76
2016-10-06T11:34:49.254Z,11.69
2016-10-06T11:35:49.287Z,11.75
2016-10-06T11:37:49.576Z,11.6
2016-10-06T11:38:49.354Z,11.65
2016-10-06T11:39:49.368Z,11.69
2016-10-06T11:42:04.335Z,11.69
2016-10-06T11:42:49.436Z,11.61
2016-10-06T11:43:49.463Z,11.7
2016-10-06T11:44:49.486Z,11.69
2016-10-06T11:45:49.503Z,11.8
2016-10-06T11:47:04.445Z,11.65
2016-10-06T11:47:49.549Z,11.58
2016-10-06T11:48:49.565Z,11.58
2016-10-06T11:49:49.595Z,11.65
2016-10-06T11:50:49.613Z,11.6
2016-10-06T11:51:49.633Z,11.69
2016-10-06T11:52:49.655Z,11.7
2016-10-06T11:53:49.678Z,11.67
2016-10-06T11:54:49.715Z,11.55
2016-10-06T11:55:49.719Z,11.55
2016-10-06T11:56:49.739Z,11.72
2016-10-06T11:57:49.772Z,11.64
2016-10-06T11:58:49.794Z,11.64
2016-10-06T12:00:04.732Z,11.64
2016-10-06T12:00:49.835Z,11.65
2016-10-06T12:01:49.851Z,11.58
2016-10-06T12:03:04.799Z,11.58
2016-10-06T12:03:49.901Z,11.55
2016-10-06T12:04:49.921Z,11.55
2016-10-06T12:05:49.947Z,11.49
2016-10-06T12:06:49.970Z,11.51
2016-10-06T12:07:49.986Z,11.57
2016-10-06T12:08:50.009Z,11.58
2016-10-06T12:09:50.033Z,11.49
2016-10-06T12:10:50.360Z,11.46
2016-10-06T12:11:50.076Z,11.47
2016-10-06T12:12:50.093Z,11.44
2016-10-06T12:13:50.238Z,11.4
2016-10-06T12:15:05.064Z,11.44
2016-10-06T12:15:50.166Z,11.43
2016-10-06T12:17:05.106Z,11.47
2016-10-06T12:17:50.209Z,11.43
2016-10-06T12:19:05.150Z,11.43
2016-10-06T12:19:50.254Z,11.57
2016-10-06T12:20:50.525Z,11.57
2016-10-06T12:21:50.303Z,11.49
2016-10-06T12:22:50.317Z,11.55
2016-10-06T12:23:50.342Z,11.58
2016-10-06T12:24:50.358Z,11.58
2016-10-06T12:25:50.385Z,11.52
2016-10-06T12:26:50.403Z,11.57
2016-10-06T12:27:50.430Z,11.58
2016-10-06T12:28:50.455Z,11.58
2016-10-06T12:30:05.398Z,11.55
2016-10-06T12:30:50.500Z,11.57
2016-10-06T12:31:50.521Z,11.65
2016-10-06T12:32:50.536Z,11.54
2016-10-06T12:34:05.481Z,11.52
2016-10-06T12:34:50.585Z,11.62
2016-10-06T12:35:50.607Z,11.62
2016-10-06T12:36:50.629Z,11.64
2016-10-06T12:37:50.654Z,11.57
2016-10-06T12:38:50.667Z,11.6
2016-10-06T12:39:50.695Z,11.6
2016-10-06T12:41:50.750Z,11.54
2016-10-06T12:42:50.763Z,11.55
2016-10-06T12:43:50.782Z,11.57
2016-10-06T12:44:50.805Z,11.55
2016-10-06T12:45:51.129Z,11.57
2016-10-06T12:46:50.845Z,11.58
2016-10-06T12:47:50.876Z,11.55
2016-10-06T12:48:50.903Z,11.69
2016-10-06T12:49:50.909Z,11.64
2016-10-06T12:50:50.939Z,11.7
2016-10-06T12:52:50.986Z,11.64
2016-10-06T12:53:51.008Z,11.65
2016-10-06T12:54:51.028Z,11.7
2016-10-06T12:55:51.045Z,11.65
2016-10-06T12:56:51.075Z,11.73
2016-10-06T12:57:51.099Z,11.64
2016-10-06T12:58:51.112Z,11.69
2016-10-06T13:00:06.064Z,11.73
2016-10-06T13:00:51.161Z,11.76
2016-10-06T13:01:51.185Z,11.69
2016-10-06T13:02:51.204Z,11.62
2016-10-06T13:03:51.229Z,11.64
2016-10-06T13:04:51.247Z,11.61
2016-10-06T13:06:06.196Z,11.6
2016-10-06T13:06:51.293Z,11.65
2016-10-06T13:07:51.316Z,11.61
2016-10-06T13:08:51.340Z,11.61
2016-10-06T13:09:51.360Z,11.55
2016-10-06T13:10:51.382Z,11.49
2016-10-06T13:11:51.403Z,11.43
2016-10-06T13:12:51.433Z,11.54
2016-10-06T13:13:51.748Z,11.61
2016-10-06T13:14:51.467Z,11.6
2016-10-06T13:15:51.487Z,11.51
2016-10-06T13:17:06.437Z,11.64
2016-10-06T13:17:51.533Z,11.61
2016-10-06T13:18:51.562Z,11.64
2016-10-06T13:19:51.830Z,11.73
2016-10-06T13:20:51.605Z,11.65
2016-10-06T13:22:06.550Z,11.55
2016-10-06T13:22:51.650Z,11.57
2016-10-06T13:23:51.669Z,11.72
2016-10-06T13:24:51.694Z,11.6
2016-10-06T13:25:51.717Z,11.64